createdAt,value
2023-05-19T00:01:55.352Z,60.86
2023-05-19T00:04:22.950Z,60.57
2023-05-19T00:06:52.261Z,60.90
2023-05-19T00:09:19.492Z,60.68
2023-05-19T00:11:47.136Z,60.47
2023-05-19T00:14:14.734Z,60.33
2023-05-19T00:16:42.751Z,60.65
2023-05-19T00:19:12.591Z,60.43
2023-05-19T00:21:39.650Z,60.55
2023-05-19T00:24:07.882Z,60.64
2023-05-19T00:26:35.066Z,60.52
2023-05-19T00:29:02.103Z,60.38
2023-05-19T00:31:29.080Z,60.57
2023-05-19T00:33:55.998Z,60.52
2023-05-19T00:36:23.040Z,59.98
2023-05-19T00:38:51.425Z,60.52
2023-05-19T00:41:18.814Z,60.15
2023-05-19T00:43:46.019Z,60.61
2023-05-19T00:46:13.232Z,60.55
2023-05-19T00:48:40.308Z,60.65
2023-05-19T00:51:07.559Z,61.03
2023-05-19T00:53:36.141Z,60.98
2023-05-19T00:56:04.117Z,60.70
2023-05-19T00:58:33.018Z,60.81
2023-05-19T01:01:04.908Z,60.61
2023-05-19T01:03:35.855Z,60.53
2023-05-19T01:06:07.548Z,60.57
2023-05-19T01:08:36.747Z,61.08
2023-05-19T01:11:05.754Z,60.61
2023-05-19T01:13:33.804Z,60.79
2023-05-19T01:16:24.943Z,60.92
2023-05-19T01:19:22.874Z,61.19
2023-05-19T01:22:15.116Z,60.71
2023-05-19T01:25:11.548Z,61.08
2023-05-19T01:27:59.792Z,60.95
2023-05-19T01:30:44.815Z,61.38
2023-05-19T01:33:15.212Z,60.98
2023-05-19T01:35:44.073Z,61.08
2023-05-19T01:38:13.077Z,60.91
2023-05-19T01:40:42.005Z,60.57
2023-05-19T01:43:14.426Z,60.73
2023-05-19T01:45:42.813Z,60.18
2023-05-19T01:48:11.306Z,60.33
2023-05-19T01:50:39.125Z,60.09
2023-05-19T01:53:06.212Z,60.33
2023-05-19T01:55:33.663Z,60.59
2023-05-19T01:58:26.496Z,60.52
2023-05-19T02:00:58.575Z,60.29
2023-05-19T02:03:44.448Z,60.24
2023-05-19T02:06:41.805Z,60.34
2023-05-19T02:09:34.240Z,59.95
2023-05-19T02:12:28.632Z,60.02
2023-05-19T02:15:09.622Z,60.07
2023-05-19T02:17:41.961Z,60.03
2023-05-19T02:20:10.151Z,60.05
2023-05-19T02:22:37.087Z,60.12
2023-05-19T02:25:04.231Z,59.95
2023-05-19T02:27:31.488Z,59.92
2023-05-19T02:29:58.533Z,59.93
2023-05-19T02:32:25.705Z,60.03
2023-05-19T02:34:53.910Z,59.87
2023-05-19T02:37:24.533Z,59.91
2023-05-19T02:39:52.006Z,60.08
2023-05-19T02:42:30.783Z,60.10
2023-05-19T02:44:57.962Z,60.33
2023-05-19T02:47:25.279Z,60.64
2023-05-19T02:49:52.088Z,60.90
2023-05-19T02:52:19.026Z,60.94
2023-05-19T02:54:45.975Z,61.17
2023-05-19T02:57:13.115Z,60.94
2023-05-19T02:59:40.378Z,60.68
2023-05-19T03:02:07.368Z,60.46
2023-05-19T03:04:41.949Z,60.18
2023-05-19T03:07:16.043Z,59.94
2023-05-19T03:09:42.883Z,59.67
2023-05-19T03:12:09.951Z,57.99
2023-05-19T03:14:38.856Z,57.63
2023-05-19T03:17:08.594Z,59.58
2023-05-19T03:19:35.683Z,65.29
2023-05-19T03:22:02.614Z,67.15
2023-05-19T03:24:29.662Z,66.36
2023-05-19T03:26:56.606Z,65.06
2023-05-19T03:29:23.826Z,64.17
2023-05-19T03:31:53.176Z,62.89
2023-05-19T03:34:20.506Z,62.28
2023-05-19T03:36:49.389Z,62.03
2023-05-19T03:39:29.061Z,61.50
2023-05-19T03:41:56.798Z,61.58
2023-05-19T03:44:23.841Z,61.42
2023-05-19T03:46:50.893Z,61.39
2023-05-19T03:49:17.943Z,60.97
2023-05-19T03:51:45.083Z,61.05
2023-05-19T03:54:12.226Z,61.14
2023-05-19T03:56:40.585Z,60.73
2023-05-19T03:59:07.867Z,60.69
2023-05-19T04:01:34.703Z,60.70
2023-05-19T04:04:02.076Z,60.91
2023-05-19T04:06:29.402Z,61.01
2023-05-19T04:08:56.552Z,61.21
2023-05-19T04:11:23.492Z,61.15
2023-05-19T04:13:50.343Z,61.31
2023-05-19T04:16:17.764Z,61.04
2023-05-19T04:18:46.727Z,61.30
2023-05-19T04:21:13.941Z,61.19
2023-05-19T04:23:40.864Z,60.94
2023-05-19T04:26:07.711Z,60.95
2023-05-19T04:28:37.236Z,60.88
2023-05-19T04:31:04.315Z,60.92
2023-05-19T04:33:31.197Z,60.91
2023-05-19T04:35:59.158Z,60.82
2023-05-19T04:38:26.216Z,60.85
2023-05-19T04:40:53.155Z,60.81
2023-05-19T04:43:20.612Z,60.96
2023-05-19T04:45:50.414Z,60.90
2023-05-19T04:48:17.771Z,61.41
2023-05-19T04:50:45.425Z,61.56
2023-05-19T04:53:12.484Z,61.49
2023-05-19T04:55:39.318Z,61.26
2023-05-19T04:58:07.088Z,60.99
2023-05-19T05:00:36.272Z,60.98
2023-05-19T05:03:07.497Z,61.17
2023-05-19T05:05:35.293Z,61.43
2023-05-19T05:08:02.322Z,61.44
2023-05-19T05:10:29.562Z,61.25
2023-05-19T05:12:56.817Z,60.99
2023-05-19T05:15:24.659Z,60.92
2023-05-19T05:17:51.946Z,60.43
2023-05-19T05:20:20.271Z,60.04
2023-05-19T05:22:47.598Z,59.96
2023-05-19T05:25:16.521Z,60.01
2023-05-19T05:27:43.407Z,59.84
2023-05-19T05:30:10.840Z,59.81
2023-05-19T05:32:38.032Z,60.03
2023-05-19T05:35:05.748Z,60.06
2023-05-19T05:37:32.590Z,60.10
2023-05-19T05:39:59.645Z,59.81
2023-05-19T05:42:28.188Z,59.85
2023-05-19T05:44:56.804Z,59.60
2023-05-19T05:47:24.253Z,58.27
2023-05-19T05:49:53.448Z,58.06
2023-05-19T05:52:23.130Z,63.50
2023-05-19T05:54:50.724Z,65.06
2023-05-19T05:57:18.068Z,63.98
2023-05-19T05:59:47.689Z,62.78
2023-05-19T06:02:15.145Z,62.00
2023-05-19T06:04:42.271Z,61.35
2023-05-19T06:07:09.156Z,60.91
2023-05-19T06:09:37.094Z,60.77
2023-05-19T06:12:04.681Z,60.54
2023-05-19T06:14:31.586Z,59.83
2023-05-19T06:16:58.627Z,59.22
2023-05-19T06:19:27.674Z,60.50
2023-05-19T06:21:54.982Z,62.69
2023-05-19T06:24:22.135Z,64.54
2023-05-19T06:26:49.540Z,63.44
2023-05-19T06:29:17.441Z,62.19
2023-05-19T06:31:44.391Z,61.20
2023-05-19T06:34:12.742Z,60.74
2023-05-19T06:36:41.913Z,60.48
2023-05-19T06:39:08.812Z,60.41
2023-05-19T06:41:35.841Z,59.93
2023-05-19T06:44:04.723Z,60.04
2023-05-19T06:46:31.888Z,59.94
2023-05-19T06:49:11.015Z,59.92
2023-05-19T06:51:38.152Z,59.79
2023-05-19T06:54:05.196Z,59.61
2023-05-19T06:56:32.044Z,58.99
2023-05-19T06:58:59.092Z,61.41
2023-05-19T07:01:28.162Z,63.83
2023-05-19T07:03:55.437Z,63.58
2023-05-19T07:06:22.681Z,62.62
2023-05-19T07:08:50.237Z,61.85
2023-05-19T07:11:18.471Z,61.20
2023-05-19T07:13:45.551Z,60.69
2023-05-19T07:16:12.539Z,60.36
2023-05-19T07:18:39.872Z,60.16
2023-05-19T07:21:07.730Z,59.85
2023-05-19T07:23:34.761Z,59.70
2023-05-19T07:26:01.833Z,58.26
2023-05-19T07:28:29.174Z,59.78
2023-05-19T07:30:56.707Z,60.43
2023-05-19T07:33:23.765Z,65.12
2023-05-19T07:35:50.970Z,66.01
2023-05-19T07:38:17.847Z,63.92
2023-05-19T07:40:44.783Z,62.55
2023-05-19T07:43:14.189Z,61.41
2023-05-19T07:45:41.277Z,60.77
2023-05-19T07:48:08.348Z,60.09
2023-05-19T07:50:35.634Z,59.49
2023-05-19T07:53:02.682Z,58.68
2023-05-19T07:55:29.618Z,58.00
2023-05-19T07:57:56.559Z,59.06
2023-05-19T08:00:26.584Z,64.95
2023-05-19T08:02:54.119Z,65.80
2023-05-19T08:05:21.281Z,63.92
2023-05-19T08:07:48.524Z,62.43
2023-05-19T08:10:15.691Z,60.99
2023-05-19T08:12:42.718Z,60.33
2023-05-19T08:15:11.950Z,59.71
2023-05-19T08:17:39.187Z,57.45
2023-05-19T08:20:08.787Z,58.76
2023-05-19T08:22:37.261Z,60.53
2023-05-19T08:25:08.293Z,64.60
2023-05-19T08:27:35.574Z,64.09
2023-05-19T08:30:02.709Z,62.19
2023-05-19T08:32:42.563Z,60.28
2023-05-19T08:35:19.212Z,58.90
2023-05-19T08:37:54.698Z,58.69
2023-05-19T08:40:22.031Z,63.80
2023-05-19T08:42:49.457Z,64.75
2023-05-19T08:45:17.605Z,62.41
2023-05-19T08:47:47.994Z,60.90
2023-05-19T08:50:21.867Z,58.61
2023-05-19T08:53:31.817Z,57.75
2023-05-19T08:56:17.312Z,60.54
2023-05-19T08:58:46.523Z,65.61
2023-05-19T09:01:29.273Z,65.86
2023-05-19T09:04:03.023Z,63.96
2023-05-19T09:06:47.113Z,61.65
2023-05-19T09:09:22.961Z,60.64
2023-05-19T09:11:59.511Z,57.94
2023-05-19T09:14:27.354Z,57.31
2023-05-19T09:16:55.097Z,58.85
2023-05-19T09:19:23.187Z,62.23
2023-05-19T09:22:03.852Z,65.48
2023-05-19T09:24:31.086Z,64.51
2023-05-19T09:27:00.309Z,62.14
2023-05-19T09:29:28.086Z,61.17
2023-05-19T09:32:01.205Z,58.42
2023-05-19T09:34:28.568Z,56.91
2023-05-19T09:36:55.829Z,59.34
2023-05-19T09:39:23.673Z,63.47
2023-05-19T09:41:55.087Z,64.58
2023-05-19T09:44:30.754Z,62.99
2023-05-19T09:46:59.450Z,60.44
2023-05-19T09:49:31.672Z,58.93
2023-05-19T09:52:06.627Z,60.21
2023-05-19T09:54:35.092Z,61.20
2023-05-19T09:57:05.162Z,64.95
2023-05-19T09:59:33.969Z,63.40
2023-05-19T10:02:03.266Z,61.05
2023-05-19T10:04:31.756Z,60.14
2023-05-19T10:07:00.405Z,58.65
2023-05-19T10:09:29.678Z,59.75
2023-05-19T10:11:58.501Z,61.78
2023-05-19T10:14:30.153Z,63.83
2023-05-19T10:16:59.772Z,63.26
2023-05-19T10:19:29.234Z,60.48
2023-05-19T10:21:56.685Z,58.57
2023-05-19T10:24:24.802Z,59.10
2023-05-19T10:27:04.781Z,62.85
2023-05-19T10:29:41.973Z,63.33
2023-05-19T10:32:15.995Z,61.48
2023-05-19T10:35:21.733Z,59.80
2023-05-19T10:37:51.976Z,57.23
2023-05-19T10:40:27.825Z,58.59
2023-05-19T10:43:14.127Z,59.30
2023-05-19T10:45:50.002Z,60.55
2023-05-19T10:48:20.628Z,64.02
2023-05-19T10:50:48.368Z,65.70
2023-05-19T10:53:21.513Z,63.04
2023-05-19T10:56:05.496Z,59.84
2023-05-19T10:58:45.591Z,57.65
2023-05-19T11:01:17.545Z,57.97
2023-05-19T11:03:53.577Z,59.42
2023-05-19T11:06:28.470Z,60.65
2023-05-19T11:09:40.365Z,64.36
2023-05-19T11:12:24.645Z,63.30
2023-05-19T11:14:55.979Z,61.43
2023-05-19T11:17:25.421Z,57.90
2023-05-19T11:19:57.034Z,56.29
2023-05-19T11:22:26.480Z,59.86
2023-05-19T11:24:56.487Z,60.89
2023-05-19T11:27:28.633Z,64.11
2023-05-19T11:29:57.672Z,62.26
2023-05-19T11:32:27.914Z,61.93
2023-05-19T11:34:56.698Z,60.04
2023-05-19T11:37:24.213Z,56.71
2023-05-19T11:39:52.863Z,57.47
2023-05-19T11:42:20.612Z,59.98
2023-05-19T11:44:47.998Z,61.68
2023-05-19T11:47:16.749Z,63.84
2023-05-19T11:49:46.211Z,62.05
2023-05-19T11:52:13.606Z,58.98
2023-05-19T11:54:42.546Z,57.76
2023-05-19T11:57:14.296Z,57.89
2023-05-19T11:59:45.820Z,60.59
2023-05-19T12:02:27.932Z,63.27
2023-05-19T12:04:55.333Z,65.52
2023-05-19T12:07:26.657Z,63.15
2023-05-19T12:09:56.231Z,59.32
2023-05-19T12:12:23.798Z,57.79
2023-05-19T12:14:53.005Z,59.92
2023-05-19T12:17:21.732Z,60.26
2023-05-19T12:19:50.165Z,62.01
2023-05-19T12:22:18.508Z,64.34
2023-05-19T12:24:46.995Z,62.84
2023-05-19T12:27:29.587Z,60.13
2023-05-19T12:29:57.806Z,57.84
2023-05-19T12:32:26.926Z,57.88
2023-05-19T12:34:58.118Z,59.17
2023-05-19T12:37:30.245Z,60.99
2023-05-19T12:39:58.324Z,62.89
2023-05-19T12:42:31.722Z,64.76
2023-05-19T12:45:01.535Z,63.21
2023-05-19T12:47:33.533Z,58.36
2023-05-19T12:50:00.896Z,57.95
2023-05-19T12:52:29.715Z,60.67
2023-05-19T12:55:08.558Z,60.73
2023-05-19T12:57:50.507Z,63.70
2023-05-19T13:00:26.227Z,65.28
2023-05-19T13:03:01.016Z,60.94
2023-05-19T13:05:29.931Z,57.51
2023-05-19T13:08:02.833Z,58.45
2023-05-19T13:10:30.644Z,59.59
2023-05-19T13:12:59.276Z,61.38
2023-05-19T13:15:29.842Z,63.63
2023-05-19T13:17:57.256Z,63.81
2023-05-19T13:20:26.945Z,61.49
2023-05-19T13:22:56.098Z,57.87
2023-05-19T13:25:23.814Z,56.87
2023-05-19T13:27:51.545Z,58.98
2023-05-19T13:30:19.816Z,59.85
2023-05-19T13:32:47.588Z,61.19
2023-05-19T13:35:16.337Z,60.97
2023-05-19T13:37:44.182Z,63.14
2023-05-19T13:40:12.110Z,65.19
2023-05-19T13:42:39.526Z,62.07
2023-05-19T13:45:07.794Z,57.34
2023-05-19T13:47:35.074Z,57.52
2023-05-19T13:50:04.734Z,59.56
2023-05-19T13:52:32.127Z,60.51
2023-05-19T13:54:59.186Z,61.75
2023-05-19T13:57:26.971Z,61.51
2023-05-19T14:00:02.617Z,64.03
2023-05-19T14:02:31.376Z,64.89
2023-05-19T14:04:59.152Z,61.22
2023-05-19T14:07:26.535Z,57.98
2023-05-19T14:09:53.682Z,57.71
2023-05-19T14:12:27.855Z,59.39
2023-05-19T14:15:16.304Z,59.82
2023-05-19T14:17:43.704Z,62.28
2023-05-19T14:20:11.576Z,62.14
2023-05-19T14:22:38.799Z,59.90
2023-05-19T14:25:06.754Z,58.59
2023-05-19T14:27:33.987Z,59.14
2023-05-19T14:30:01.348Z,59.93
2023-05-19T14:32:30.466Z,61.61
2023-05-19T14:34:57.983Z,63.80
2023-05-19T14:37:28.159Z,62.67
2023-05-19T14:39:55.826Z,62.16
2023-05-19T14:42:23.011Z,57.30
2023-05-19T14:45:03.148Z,56.75
2023-05-19T14:47:30.700Z,58.23
2023-05-19T14:49:58.086Z,59.99
2023-05-19T14:52:26.862Z,60.65
2023-05-19T14:54:54.174Z,64.00
2023-05-19T14:57:33.127Z,63.07
2023-05-19T15:00:00.284Z,60.33
2023-05-19T15:02:29.438Z,57.69
2023-05-19T15:04:56.894Z,59.20
2023-05-19T15:07:24.866Z,60.03
2023-05-19T15:09:52.039Z,61.70
2023-05-19T15:12:19.430Z,64.53
2023-05-19T15:14:47.092Z,64.64
2023-05-19T15:17:14.646Z,61.41
2023-05-19T15:19:43.172Z,58.11
2023-05-19T15:22:10.567Z,57.64
2023-05-19T15:24:37.840Z,59.64
2023-05-19T15:27:05.610Z,62.05
2023-05-19T15:29:33.012Z,64.25
2023-05-19T15:32:00.403Z,63.70
2023-05-19T15:34:27.605Z,59.54
2023-05-19T15:36:55.099Z,58.12
2023-05-19T15:39:22.205Z,58.84
2023-05-19T15:41:51.658Z,60.97
2023-05-19T15:44:18.767Z,63.47
2023-05-19T15:46:46.099Z,63.49
2023-05-19T15:49:25.366Z,61.93
2023-05-19T15:51:52.568Z,59.55
2023-05-19T15:54:19.640Z,57.32
2023-05-19T15:56:46.800Z,59.34
2023-05-19T15:59:14.091Z,61.30
2023-05-19T16:01:41.409Z,64.52
2023-05-19T16:04:08.829Z,64.21
2023-05-19T16:06:35.787Z,60.95
2023-05-19T16:09:03.889Z,60.12
2023-05-19T16:11:31.010Z,57.98
2023-05-19T16:13:58.056Z,58.37
2023-05-19T16:16:25.151Z,61.22
2023-05-19T16:18:52.528Z,63.04
2023-05-19T16:21:19.488Z,64.29
2023-05-19T16:23:47.255Z,62.96
2023-05-19T16:26:14.218Z,61.02
2023-05-19T16:28:52.206Z,58.69
2023-05-19T16:31:19.309Z,58.07
2023-05-19T16:33:46.965Z,59.13
2023-05-19T16:36:13.953Z,60.24
2023-05-19T16:38:41.406Z,61.53
2023-05-19T16:41:12.297Z,65.43
2023-05-19T16:43:39.524Z,65.87
2023-05-19T16:46:12.332Z,63.59
2023-05-19T16:48:39.415Z,63.55
2023-05-19T16:51:06.770Z,60.92
2023-05-19T16:53:33.710Z,58.20
2023-05-19T16:56:00.859Z,57.75
2023-05-19T16:58:28.999Z,59.66
2023-05-19T17:00:58.256Z,60.42
2023-05-19T17:03:25.842Z,64.60
2023-05-19T17:05:53.230Z,66.12
2023-05-19T17:08:20.437Z,63.67
2023-05-19T17:10:48.451Z,62.58
2023-05-19T17:13:15.764Z,61.04
2023-05-19T17:15:43.550Z,58.61
2023-05-19T17:18:12.781Z,57.22
2023-05-19T17:20:40.087Z,58.37
2023-05-19T17:23:07.578Z,59.55
2023-05-19T17:25:35.335Z,63.47
2023-05-19T17:28:12.765Z,64.69
2023-05-19T17:30:41.701Z,64.14
2023-05-19T17:33:08.901Z,62.61
2023-05-19T17:35:36.281Z,60.79
2023-05-19T17:38:03.270Z,57.71
2023-05-19T17:40:30.594Z,57.42
2023-05-19T17:42:57.796Z,59.95
2023-05-19T17:45:25.045Z,60.87
2023-05-19T17:47:52.269Z,65.09
2023-05-19T17:50:19.969Z,65.28
2023-05-19T17:52:47.545Z,63.68
2023-05-19T17:55:15.325Z,62.36
2023-05-19T17:57:45.528Z,61.88
2023-05-19T18:00:13.734Z,61.09
2023-05-19T18:02:41.341Z,60.15
2023-05-19T18:05:09.296Z,57.84
2023-05-19T18:07:52.395Z,56.79
2023-05-19T18:10:19.808Z,58.65
2023-05-19T18:12:47.046Z,61.08
2023-05-19T18:15:14.177Z,65.19
2023-05-19T18:17:41.868Z,65.68
2023-05-19T18:20:10.056Z,64.98
2023-05-19T18:22:37.368Z,63.09
2023-05-19T18:25:04.794Z,62.32
2023-05-19T18:27:33.732Z,60.73
2023-05-19T18:30:00.891Z,59.68
2023-05-19T18:32:28.033Z,59.01
2023-05-19T18:34:55.294Z,60.83
2023-05-19T18:37:22.863Z,64.60
2023-05-19T18:39:49.790Z,65.78
2023-05-19T18:42:17.460Z,63.13
2023-05-19T18:44:48.015Z,62.69
2023-05-19T18:47:15.236Z,61.75
2023-05-19T18:49:42.592Z,61.15
2023-05-19T18:52:09.527Z,60.40
2023-05-19T18:54:37.991Z,59.53
2023-05-19T18:57:05.917Z,58.33
2023-05-19T18:59:33.680Z,60.39
2023-05-19T19:02:00.671Z,63.73
2023-05-19T19:04:27.657Z,64.76
2023-05-19T19:06:54.998Z,64.14
2023-05-19T19:09:22.163Z,61.67
2023-05-19T19:11:49.568Z,60.81
2023-05-19T19:14:16.566Z,61.13
2023-05-19T19:16:43.951Z,60.32
2023-05-19T19:19:11.097Z,60.12
2023-05-19T19:21:38.161Z,58.54
2023-05-19T19:24:05.927Z,60.10
2023-05-19T19:26:33.122Z,63.47
2023-05-19T19:29:00.488Z,65.35
2023-05-19T19:31:29.084Z,64.11
2023-05-19T19:33:59.597Z,63.12
2023-05-19T19:36:27.215Z,61.63
2023-05-19T19:38:54.435Z,61.07
2023-05-19T19:41:21.838Z,60.65
2023-05-19T19:43:49.222Z,60.72
2023-05-19T19:46:16.094Z,60.48
2023-05-19T19:48:43.545Z,60.43
2023-05-19T19:51:10.687Z,60.83
2023-05-19T19:53:37.938Z,60.05
2023-05-19T19:56:06.194Z,60.16
2023-05-19T19:58:33.162Z,58.60
2023-05-19T20:01:14.225Z,59.27
2023-05-19T20:03:41.606Z,64.23
2023-05-19T20:06:09.039Z,64.83
2023-05-19T20:08:36.332Z,63.31
2023-05-19T20:11:03.602Z,62.78
2023-05-19T20:13:32.093Z,62.56
2023-05-19T20:16:02.511Z,62.46
2023-05-19T20:18:30.286Z,62.32
2023-05-19T20:20:57.610Z,62.55
2023-05-19T20:23:24.661Z,62.19
2023-05-19T20:26:10.179Z,61.54
2023-05-19T20:28:39.963Z,61.56
2023-05-19T20:31:07.236Z,61.46
2023-05-19T20:33:34.322Z,61.24
2023-05-19T20:36:01.531Z,61.27
2023-05-19T20:38:28.579Z,61.38
2023-05-19T20:40:56.034Z,61.52
2023-05-19T20:43:22.981Z,61.31
2023-05-19T20:45:50.155Z,61.48
2023-05-19T20:48:17.192Z,61.14
2023-05-19T20:50:44.542Z,61.03
2023-05-19T20:53:11.919Z,61.61
2023-05-19T20:55:39.404Z,61.73
2023-05-19T20:58:06.583Z,61.49
2023-05-19T21:00:33.978Z,61.57
2023-05-19T21:03:01.896Z,61.02
2023-05-19T21:05:29.520Z,60.72
2023-05-19T21:07:56.808Z,60.85
2023-05-19T21:10:24.170Z,61.03
2023-05-19T21:12:51.311Z,61.31
2023-05-19T21:15:18.659Z,61.48
2023-05-19T21:17:46.938Z,61.72
2023-05-19T21:20:14.305Z,61.55
2023-05-19T21:22:41.608Z,61.48
2023-05-19T21:25:09.558Z,61.56
2023-05-19T21:27:37.123Z,61.09
2023-05-19T21:30:04.428Z,61.11
2023-05-19T21:32:31.614Z,61.04
2023-05-19T21:34:58.968Z,61.27
2023-05-19T21:37:26.728Z,61.24
2023-05-19T21:39:53.618Z,60.89
2023-05-19T21:42:20.689Z,60.84
2023-05-19T21:44:48.085Z,60.99
2023-05-19T21:47:15.466Z,60.55
2023-05-19T21:49:42.929Z,60.69
2023-05-19T21:52:10.448Z,60.35
2023-05-19T21:54:37.326Z,60.33
2023-05-19T21:57:04.457Z,60.44
2023-05-19T21:59:31.615Z,60.85
2023-05-19T22:01:59.220Z,61.04
2023-05-19T22:04:27.604Z,60.86
2023-05-19T22:06:55.006Z,61.05
2023-05-19T22:09:21.949Z,61.10
2023-05-19T22:11:48.890Z,61.15
2023-05-19T22:14:16.360Z,61.11
2023-05-19T22:16:43.799Z,61.08
2023-05-19T22:19:12.192Z,60.92
2023-05-19T22:21:39.224Z,61.03
2023-05-19T22:24:07.048Z,60.96
2023-05-19T22:26:36.070Z,60.80
2023-05-19T22:29:03.896Z,60.69
2023-05-19T22:31:31.039Z,60.34
2023-05-19T22:33:58.066Z,60.83
2023-05-19T22:36:25.077Z,60.81
2023-05-19T22:38:52.155Z,60.77
2023-05-19T22:41:19.477Z,60.96
2023-05-19T22:43:50.292Z,60.75
2023-05-19T22:46:17.423Z,60.88
2023-05-19T22:48:44.720Z,60.91
2023-05-19T22:51:11.800Z,61.10
2023-05-19T22:53:39.490Z,61.06
2023-05-19T22:56:07.300Z,61.04
2023-05-19T22:58:34.586Z,61.25
2023-05-19T23:01:02.234Z,61.19
2023-05-19T23:03:29.237Z,61.31
2023-05-19T23:05:56.696Z,61.67
2023-05-19T23:08:26.815Z,61.60
2023-05-19T23:10:54.393Z,61.13
2023-05-19T23:13:23.907Z,61.36
2023-05-19T23:15:50.999Z,61.31
2023-05-19T23:18:17.961Z,61.73
2023-05-19T23:20:45.530Z,61.71
2023-05-19T23:23:12.441Z,61.65
2023-05-19T23:25:39.288Z,61.81
2023-05-19T23:28:15.197Z,61.65
2023-05-19T23:30:42.204Z,61.48
2023-05-19T23:33:09.285Z,61.48
2023-05-19T23:35:36.727Z,61.63
2023-05-19T23:38:03.622Z,61.88
2023-05-19T23:40:31.125Z,62.04
2023-05-19T23:42:58.130Z,61.37
2023-05-19T23:45:25.759Z,61.12
2023-05-19T23:47:52.955Z,61.13
2023-05-19T23:50:20.248Z,61.70
2023-05-19T23:52:48.980Z,61.86
2023-05-19T23:55:16.895Z,61.54
2023-05-19T23:57:43.886Z,61.57
